createdAt,value
2022-11-05T04:01:07.431Z,3.13
2022-11-05T04:03:36.610Z,2.87
2022-11-05T04:06:24.690Z,2.50
2022-11-05T04:09:21.240Z,2.50
2022-11-05T04:12:07.103Z,2.90
2022-11-05T04:14:34.978Z,3.15
2022-11-05T04:17:09.648Z,2.40
2022-11-05T04:19:57.643Z,2.50
2022-11-05T04:22:45.132Z,2.50
2022-11-05T04:25:13.700Z,2.90
2022-11-05T04:27:40.938Z,2.80
2022-11-05T04:30:24.038Z,2.90
2022-11-05T04:33:11.155Z,2.67
2022-11-05T04:35:41.738Z,2.90
2022-11-05T04:38:11.343Z,2.90
2022-11-05T04:40:39.050Z,2.90
2022-11-05T04:43:10.593Z,2.90
2022-11-05T04:45:41.682Z,3.03
2022-11-05T04:48:08.918Z,2.87
2022-11-05T04:50:36.127Z,2.70
2022-11-05T04:53:03.272Z,3.00
2022-11-05T04:55:30.425Z,2.80
2022-11-05T04:57:57.573Z,2.80
2022-11-05T05:00:25.027Z,2.70
2022-11-05T05:02:52.271Z,3.00
2022-11-05T05:05:19.445Z,2.90
2022-11-05T05:07:46.595Z,2.50
2022-11-05T05:10:13.760Z,2.88
2022-11-05T05:12:40.950Z,2.73
2022-11-05T05:15:09.549Z,2.90
2022-11-05T05:17:36.725Z,2.70
2022-11-05T05:20:22.599Z,2.60
2022-11-05T05:22:53.963Z,2.70
2022-11-05T05:25:22.115Z,2.30
2022-11-05T05:27:49.236Z,2.60
2022-11-05T05:30:16.496Z,2.60
2022-11-05T05:32:43.961Z,2.75
2022-11-05T05:35:11.200Z,2.80
2022-11-05T05:37:38.463Z,2.30
2022-11-05T05:40:05.970Z,2.80
2022-11-05T05:42:35.395Z,2.60
2022-11-05T05:45:06.519Z,2.80
2022-11-05T05:47:33.650Z,2.90
2022-11-05T05:50:00.792Z,2.43
2022-11-05T05:52:27.927Z,2.50
2022-11-05T05:54:55.044Z,2.97
2022-11-05T05:57:22.442Z,3.00
2022-11-05T05:59:49.549Z,3.00
2022-11-05T06:02:16.758Z,2.70
2022-11-05T06:04:43.930Z,2.80
2022-11-05T06:07:11.048Z,2.80
2022-11-05T06:09:38.157Z,2.95
2022-11-05T06:12:05.631Z,2.90
2022-11-05T06:14:32.759Z,2.70
2022-11-05T06:16:59.849Z,3.00
2022-11-05T06:19:27.132Z,2.73
2022-11-05T06:21:54.247Z,3.00
2022-11-05T06:24:21.366Z,2.73
2022-11-05T06:26:48.470Z,3.03
2022-11-05T06:29:15.631Z,3.17
2022-11-05T06:31:42.749Z,3.33
2022-11-05T06:34:09.987Z,3.60
2022-11-05T06:36:37.168Z,2.90
2022-11-05T06:39:04.424Z,3.00
2022-11-05T06:41:31.617Z,3.30
2022-11-05T06:43:58.768Z,3.10
2022-11-05T06:46:25.959Z,3.40
2022-11-05T06:48:53.108Z,3.43
2022-11-05T06:51:20.441Z,4.30
2022-11-05T06:53:47.561Z,3.90
2022-11-05T06:56:14.717Z,3.60
2022-11-05T06:58:41.846Z,3.00
2022-11-05T07:01:10.569Z,3.37
2022-11-05T07:03:38.351Z,3.67
2022-11-05T07:06:07.150Z,3.90
2022-11-05T07:08:35.704Z,3.30
2022-11-05T07:11:03.431Z,3.87
2022-11-05T07:13:30.601Z,3.50
2022-11-05T07:15:58.013Z,3.67
2022-11-05T07:18:25.291Z,3.57
2022-11-05T07:20:52.415Z,3.53
2022-11-05T07:23:19.673Z,3.43
2022-11-05T07:25:46.872Z,3.60
2022-11-05T07:28:14.483Z,3.50
2022-11-05T07:30:41.728Z,4.13
2022-11-05T07:33:09.691Z,3.43
2022-11-05T07:35:37.128Z,3.10
2022-11-05T07:38:04.278Z,3.17
2022-11-05T07:40:31.461Z,3.47
2022-11-05T07:43:00.815Z,3.43
2022-11-05T07:45:29.965Z,3.40
2022-11-05T07:48:00.360Z,3.10
2022-11-05T07:50:35.685Z,3.10
2022-11-05T07:53:08.540Z,3.88
2022-11-05T07:55:35.994Z,3.70
2022-11-05T07:58:04.111Z,4.20
2022-11-05T08:00:31.458Z,6.43
2022-11-05T08:03:08.523Z,7.13
2022-11-05T08:05:38.196Z,8.50
2022-11-05T08:08:07.242Z,5.00
2022-11-05T08:10:34.910Z,4.10
2022-11-05T08:13:02.084Z,4.07
2022-11-05T08:15:29.265Z,3.93
2022-11-05T08:18:04.076Z,3.40
2022-11-05T08:20:32.018Z,4.75
2022-11-05T08:22:59.374Z,4.90
2022-11-05T08:25:27.102Z,6.32
2022-11-05T08:27:58.820Z,14.13
2022-11-05T08:30:26.406Z,12.60
2022-11-05T08:32:57.885Z,14.00
2022-11-05T08:35:25.976Z,11.80
2022-11-05T08:38:00.626Z,5.50
2022-11-05T08:40:28.599Z,5.88
2022-11-05T08:43:03.303Z,4.50
2022-11-05T08:45:30.934Z,7.18
2022-11-05T08:48:02.860Z,5.63
2022-11-05T08:50:29.999Z,4.63
2022-11-05T08:52:57.179Z,5.70
2022-11-05T08:55:24.383Z,7.20
2022-11-05T08:58:10.613Z,6.33
2022-11-05T09:00:38.321Z,4.33
2022-11-05T09:03:07.343Z,3.67
2022-11-05T09:05:38.035Z,3.83
2022-11-05T09:08:13.618Z,4.20
2022-11-05T09:10:41.834Z,3.40
2022-11-05T09:13:14.668Z,3.25
2022-11-05T09:15:45.317Z,6.03
2022-11-05T09:18:14.101Z,6.18
2022-11-05T09:20:41.741Z,4.30
2022-11-05T09:23:11.270Z,4.88
2022-11-05T09:25:38.816Z,4.47
2022-11-05T09:28:26.189Z,3.90
2022-11-05T09:30:53.626Z,3.72
2022-11-05T09:33:23.960Z,3.30
2022-11-05T09:35:52.734Z,3.00
2022-11-05T09:38:19.909Z,2.70
2022-11-05T09:41:05.891Z,2.70
2022-11-05T09:43:46.045Z,2.60
2022-11-05T09:46:47.254Z,2.70
2022-11-05T09:49:42.420Z,3.10
2022-11-05T09:52:15.196Z,2.63
2022-11-05T09:54:42.354Z,2.70
2022-11-05T09:57:15.804Z,2.70
2022-11-05T09:59:46.987Z,2.63
2022-11-05T10:02:33.645Z,2.50
2022-11-05T10:05:09.689Z,2.67
2022-11-05T10:08:16.894Z,2.10
2022-11-05T10:10:51.348Z,2.92
2022-11-05T10:13:30.170Z,2.73
2022-11-05T10:16:18.310Z,2.77
2022-11-05T10:18:51.020Z,2.60
2022-11-05T10:21:37.582Z,2.72
2022-11-05T10:24:19.436Z,3.50
2022-11-05T10:26:52.673Z,3.30
2022-11-05T10:29:29.565Z,4.60
2022-11-05T10:31:59.419Z,4.80
2022-11-05T10:34:31.381Z,4.70
2022-11-05T10:36:58.719Z,4.00
2022-11-05T10:39:29.317Z,4.72
2022-11-05T10:42:23.898Z,4.80
2022-11-05T10:45:33.299Z,3.70
2022-11-05T10:48:19.257Z,3.77
2022-11-05T10:50:47.422Z,3.85
2022-11-05T10:53:18.463Z,3.35
2022-11-05T10:55:48.682Z,3.20
2022-11-05T10:58:15.729Z,3.13
2022-11-05T11:00:45.225Z,3.40
2022-11-05T11:03:37.434Z,3.30
2022-11-05T11:06:12.610Z,3.30
2022-11-05T11:08:43.533Z,3.30
2022-11-05T11:11:13.223Z,3.60
2022-11-05T11:14:02.323Z,3.00
2022-11-05T11:16:36.057Z,3.65
2022-11-05T11:19:04.197Z,2.70
2022-11-05T11:21:32.781Z,3.45
2022-11-05T11:24:06.905Z,3.00
2022-11-05T11:26:37.490Z,3.60
2022-11-05T11:29:14.898Z,3.20
2022-11-05T11:31:42.403Z,2.90
2022-11-05T11:34:19.987Z,2.75
2022-11-05T11:36:49.772Z,3.00
2022-11-05T11:39:22.322Z,2.80
2022-11-05T11:41:55.193Z,2.40
2022-11-05T11:44:36.659Z,2.85
2022-11-05T11:47:10.286Z,2.97
2022-11-05T11:49:45.984Z,2.80
2022-11-05T11:52:24.227Z,2.90
2022-11-05T11:54:52.398Z,2.75
2022-11-05T11:57:28.213Z,2.67
2022-11-05T12:00:14.371Z,2.50
2022-11-05T12:02:47.184Z,2.78
2022-11-05T12:05:33.498Z,2.45
2022-11-05T12:08:19.438Z,2.92
2022-11-05T12:11:04.161Z,2.85
2022-11-05T12:13:42.791Z,2.80
2022-11-05T12:16:45.749Z,2.58
2022-11-05T12:19:45.778Z,2.90
2022-11-05T12:22:18.873Z,2.63
2022-11-05T12:25:16.709Z,2.50
2022-11-05T12:27:55.680Z,2.60
2022-11-05T12:30:23.651Z,2.40
2022-11-05T12:33:09.320Z,2.45
2022-11-05T12:36:06.757Z,3.13
2022-11-05T12:38:55.603Z,2.80
2022-11-05T12:41:51.501Z,2.30
2022-11-05T12:44:39.407Z,3.05
2022-11-05T12:47:21.242Z,2.63
2022-11-05T12:50:09.939Z,2.60
2022-11-05T12:52:51.692Z,2.50
2022-11-05T12:55:23.020Z,2.30
2022-11-05T12:57:54.436Z,2.40
2022-11-05T13:00:24.310Z,2.58
2022-11-05T13:02:55.078Z,2.15
2022-11-05T13:05:33.711Z,2.47
2022-11-05T13:08:07.481Z,2.60
2022-11-05T13:11:03.470Z,2.75
2022-11-05T13:13:59.599Z,2.20
2022-11-05T13:16:34.249Z,2.50
2022-11-05T13:19:31.126Z,1.90
2022-11-05T13:22:09.716Z,2.70
2022-11-05T13:24:42.218Z,2.80
2022-11-05T13:27:48.138Z,2.60
2022-11-05T13:30:21.926Z,3.10
2022-11-05T13:33:14.955Z,2.78
2022-11-05T13:36:18.824Z,2.58
2022-11-05T13:38:59.953Z,2.30
2022-11-05T13:41:42.172Z,2.10
2022-11-05T13:44:44.213Z,2.38
2022-11-05T13:47:37.843Z,2.30
2022-11-05T13:50:22.872Z,2.40
2022-11-05T13:53:34.821Z,2.40
2022-11-05T13:56:05.592Z,2.40
2022-11-05T13:58:38.242Z,2.38
2022-11-05T14:01:17.462Z,2.42
2022-11-05T14:03:53.407Z,2.20
2022-11-05T14:06:34.177Z,2.60
2022-11-05T14:09:09.832Z,2.58
2022-11-05T14:11:41.112Z,2.20
2022-11-05T14:14:16.284Z,2.50
2022-11-05T14:16:51.648Z,2.60
2022-11-05T14:19:18.738Z,2.53
2022-11-05T14:21:57.321Z,2.45
2022-11-05T14:24:44.226Z,2.80
2022-11-05T14:27:14.050Z,2.33
2022-11-05T14:29:48.664Z,2.90
2022-11-05T14:32:21.374Z,2.70
2022-11-05T14:35:11.421Z,2.70
2022-11-05T14:37:56.128Z,3.00
2022-11-05T14:40:29.166Z,2.90
2022-11-05T14:43:23.544Z,2.80
2022-11-05T14:46:06.154Z,2.90
2022-11-05T14:48:47.808Z,2.83
2022-11-05T14:51:26.152Z,3.00
2022-11-05T14:54:14.931Z,3.53
2022-11-05T14:56:53.218Z,3.70
2022-11-05T14:59:28.172Z,3.72
2022-11-05T15:01:57.144Z,3.17
2022-11-05T15:04:33.318Z,3.60
2022-11-05T15:07:03.470Z,4.00
2022-11-05T15:09:46.589Z,4.40
2022-11-05T15:12:25.657Z,3.65
2022-11-05T15:15:03.159Z,2.80
2022-11-05T15:17:58.050Z,3.30
2022-11-05T15:20:39.960Z,3.08
2022-11-05T15:23:14.059Z,3.10
2022-11-05T15:25:53.444Z,3.05
2022-11-05T15:28:25.667Z,3.15
2022-11-05T15:31:04.662Z,3.10
2022-11-05T15:33:32.784Z,3.00
2022-11-05T15:36:23.423Z,3.35
2022-11-05T15:39:15.148Z,3.78
2022-11-05T15:41:38.691Z,3.40
2022-11-05T15:44:05.852Z,3.30
2022-11-05T15:46:33.073Z,3.00
2022-11-05T15:49:06.548Z,3.17
2022-11-05T15:51:35.543Z,3.10
2022-11-05T15:56:55.727Z,3.17
2022-11-05T15:59:25.732Z,3.00
2022-11-05T16:02:02.016Z,3.28
2022-11-05T16:04:34.559Z,2.80
2022-11-05T16:07:08.950Z,3.30
2022-11-05T16:09:39.972Z,3.38
2022-11-05T16:12:19.347Z,2.83
2022-11-05T16:15:04.330Z,2.90
2022-11-05T16:17:48.010Z,3.03
2022-11-05T16:20:24.342Z,2.70
2022-11-05T16:22:59.506Z,2.87
2022-11-05T16:25:37.253Z,2.80
2022-11-05T16:28:06.885Z,3.00
2022-11-05T16:30:34.072Z,3.40
2022-11-05T16:33:07.331Z,3.90
2022-11-05T16:35:39.745Z,3.20
2022-11-05T16:38:07.003Z,3.70
2022-11-05T16:40:34.220Z,4.60
2022-11-05T16:43:19.231Z,4.50
2022-11-05T16:45:46.618Z,3.63
2022-11-05T16:48:14.731Z,3.90
2022-11-05T16:50:42.498Z,3.58
2022-11-05T16:53:09.865Z,3.97
2022-11-05T16:55:38.818Z,4.33
2022-11-05T16:58:07.318Z,3.73
2022-11-05T17:00:34.509Z,4.50
2022-11-05T17:03:01.684Z,5.37
2022-11-05T17:05:30.745Z,5.43
2022-11-05T17:07:58.255Z,6.03
2022-11-05T17:10:26.411Z,5.40
2022-11-05T17:12:54.240Z,5.27
2022-11-05T17:15:25.947Z,4.67
2022-11-05T17:17:54.836Z,4.60
2022-11-05T17:20:40.693Z,4.60
2022-11-05T17:23:11.297Z,4.80
2022-11-05T17:25:40.603Z,5.10
2022-11-05T17:28:08.729Z,5.93
2022-11-05T17:30:37.003Z,5.55
2022-11-05T17:33:04.349Z,5.40
2022-11-05T17:35:31.764Z,5.30
2022-11-05T17:37:58.927Z,5.15
2022-11-05T17:40:27.318Z,5.25
2022-11-05T17:42:54.431Z,5.55
2022-11-05T17:45:21.563Z,5.45
2022-11-05T17:47:48.809Z,5.30
2022-11-05T17:50:16.358Z,4.90
2022-11-05T17:52:44.132Z,4.28
2022-11-05T17:55:18.384Z,5.50
2022-11-05T17:57:47.803Z,5.23
2022-11-05T18:00:17.998Z,6.37
2022-11-05T18:02:46.382Z,4.33
2022-11-05T18:05:14.539Z,4.80
2022-11-05T18:07:42.154Z,4.27
2022-11-05T18:10:10.245Z,4.80
2022-11-05T18:12:38.001Z,5.22
2022-11-05T18:15:06.309Z,6.07
2022-11-05T18:17:33.507Z,6.50
2022-11-05T18:20:00.780Z,6.40
2022-11-05T18:22:28.050Z,6.72
2022-11-05T18:24:55.247Z,6.28
2022-11-05T18:27:24.635Z,5.20
2022-11-05T18:29:52.225Z,5.10
2022-11-05T18:32:19.519Z,5.50
2022-11-05T18:34:46.717Z,6.00
2022-11-05T18:37:14.236Z,6.47
2022-11-05T18:39:41.502Z,7.83
2022-11-05T18:42:08.824Z,7.85
2022-11-05T18:44:39.261Z,8.43
2022-11-05T18:47:07.148Z,5.93
2022-11-05T18:49:36.102Z,4.93
2022-11-05T18:52:04.276Z,6.97
2022-11-05T18:54:31.537Z,21.52
2022-11-05T18:56:58.767Z,18.52
2022-11-05T18:59:42.480Z,9.90
2022-11-05T19:02:11.435Z,5.13
2022-11-05T19:04:39.466Z,5.28
2022-11-05T19:07:08.082Z,5.17
2022-11-05T19:09:36.774Z,5.97
2022-11-05T19:12:05.011Z,5.43
2022-11-05T19:14:32.183Z,4.20
2022-11-05T19:17:00.401Z,4.75
2022-11-05T19:19:28.304Z,5.40
2022-11-05T19:21:55.654Z,5.63
2022-11-05T19:24:22.863Z,9.00
2022-11-05T19:26:50.380Z,8.83
2022-11-05T19:29:17.771Z,7.33
2022-11-05T19:31:44.914Z,5.90
2022-11-05T19:34:13.365Z,5.30
2022-11-05T19:36:42.297Z,5.30
2022-11-05T19:39:12.870Z,11.53
2022-11-05T19:41:40.185Z,9.32
2022-11-05T19:44:07.710Z,6.13
2022-11-05T19:46:34.961Z,4.73
2022-11-05T19:49:02.744Z,4.93
2022-11-05T19:51:31.852Z,5.53
2022-11-05T19:54:00.936Z,5.63
2022-11-05T19:56:30.682Z,5.33
2022-11-05T19:58:58.727Z,5.50
2022-11-05T20:01:27.943Z,8.20
2022-11-05T20:03:57.043Z,7.83
2022-11-05T20:06:28.721Z,7.10
2022-11-05T20:11:56.474Z,8.30
2022-11-05T20:14:25.459Z,8.00
2022-11-05T20:16:53.112Z,10.87
2022-11-05T20:19:21.976Z,9.80
2022-11-05T20:21:49.112Z,12.50
2022-11-05T20:24:23.657Z,13.73
2022-11-05T20:26:54.332Z,9.97
2022-11-05T20:29:22.260Z,10.07
2022-11-05T20:31:51.474Z,7.80
2022-11-05T20:34:18.678Z,8.00
2022-11-05T20:36:45.835Z,8.13
2022-11-05T20:39:13.055Z,7.37
2022-11-05T20:41:40.355Z,6.83
2022-11-05T20:44:07.483Z,6.50
2022-11-05T20:46:34.768Z,6.67
2022-11-05T20:49:01.916Z,6.30
2022-11-05T20:51:29.619Z,6.80
2022-11-05T20:53:58.423Z,7.40
2022-11-05T20:56:28.088Z,7.30
2022-11-05T20:58:59.848Z,7.50
2022-11-05T21:01:32.537Z,6.97
2022-11-05T21:03:59.953Z,8.97
2022-11-05T21:06:27.099Z,7.20
2022-11-05T21:08:54.536Z,7.20
2022-11-05T21:11:22.146Z,7.40
2022-11-05T21:13:49.567Z,7.10
2022-11-05T21:16:22.207Z,18.17
2022-11-05T21:18:49.459Z,15.70
2022-11-05T21:21:19.300Z,16.47
2022-11-05T21:23:47.068Z,14.90
2022-11-05T21:26:15.218Z,12.90
2022-11-05T21:28:42.886Z,9.80
2022-11-05T21:31:10.539Z,7.80
2022-11-05T21:33:38.134Z,7.47
2022-11-05T21:36:11.041Z,6.40
2022-11-05T21:38:38.989Z,7.07
2022-11-05T21:41:07.378Z,7.90
2022-11-05T21:43:34.914Z,8.20
2022-11-05T21:46:03.976Z,16.13
2022-11-05T21:48:32.184Z,12.77
2022-11-05T21:51:18.150Z,10.07
2022-11-05T21:54:04.117Z,12.10
2022-11-05T21:56:50.486Z,10.53
2022-11-05T21:59:41.541Z,10.23
